WARNING - Please set your current conddition source. Defaulted to metar

Welkom op de weersite van Veghel e.o.

Voor vele een welkome verandering , het regent weer.

Temperatuur weer onder 25 graden dus;

Einde aan de hittegolf 2018.

Deze begon op 12 juli t/m 8 augustus totaal van 28 dagen.

Het warmst was het op 26 en 27 juli met 36.6 graden.


Webcam Veghel  Webcam Veghel


Onweer radar Meer informatie blitzortung!


waarschuwing voor winterse neerslag Meer informatie rain snow radar


U vindt ons ook hier:

Het Weer Aktueel

European Weather Network

Weather Underground

Benelux Weer Netwerk

AWEKAS


Sneeuw/IJzel/Bevriezing van: 23-01-2019 22:00 tot: 25-01-2019 12:00 waarschuwing voor: Sneeuw/IJzel/Bevriezing niveau: Geel info button
Lokale gladheid door sneeuwresten en/of bevriezing van natte weggedeelten.Kans op gladheid.Alle verkeersdeelnemers kunnen hinder ondervinden.Pas uw rijgedrag aan.Volg weerberichten en waarschuwingen.

METAR rapporten vliegvelden

   
EHAM - Amsterdam
Gewijzigd: 23-01-2019 23:25
Bewolking  
Bewolking  
   Wind: Noorden 7.4 km/h
Wind: Noorden 7.4 km/h
Temperatuur: 0°C
Voelt als: -3°C
Dauwpunt: -2°C
Vochtigheid: 87%
Barometer: 1006 hPa
Bewolking: Overcast
Zicht: 8 km
Bewolking: Gedeeltelijk bewolkt 1000 ft,
Grotendeels bewolkt 1300 ft,
Bewolking 1700 ft
EHAM 232225Z 36004KT 330V040 8000 SCT010 BKN013 OVC017 M00/M02 Q1006 TEMPO 7000 BECMG BKN015
EHEH - Eindhoven
Gewijzigd: 23-01-2019 23:25
Nevel, Bewolking  
Nevel, Bewolking  
   Wind: Noorden 9.3 km/h
Wind: Noorden 9.3 km/h
Temperatuur: -2°C
Voelt als: -6°C
Dauwpunt: -5°C
Vochtigheid: 80%
Barometer: 1006 hPa
Bewolking: Overcast
Zicht: 9 km
Bewolking: Bewolking 1600 ft
EHEH 232225Z AUTO 01005KT 9000 BR OVC016 M02/M05 Q1006 WHT
EHGR - Gilze/Rijen
Gewijzigd: 23-01-2019 23:25
Nevel, Bewolking  
Nevel, Bewolking  
   Wind: NNO 11.1 km/h
Wind: NNO 11.1 km/h
Temperatuur: -1°C
Voelt als: -5°C
Dauwpunt: -3°C
Vochtigheid: 86%
Barometer: 1006 hPa
Bewolking: Overcast
Zicht: 6 km
Bewolking: Bewolking 1100 ft
EHGR 232225Z AUTO 03006KT 350V080 6000 BR OVC011 M01/M03 Q1006 BLACKGRN
EHBK - Maastricht
Gewijzigd: 23-01-2019 23:25
Bewolking  
Bewolking  
   Wind: NNO 11.1 km/h
Wind: NNO 11.1 km/h
Temperatuur: -3°C
Voelt als: -7°C
Dauwpunt: -6°C
Vochtigheid: 80%
Barometer: 1005 hPa
Bewolking: Overcast
Zicht: 9 km
Bewolking: Bewolking 1800 ft
EHBK 232225Z AUTO 03006KT 360V070 9000 OVC018 M03/M06 Q1005 R03///////
EHVK - Volkel
Gewijzigd: 23-01-2019 23:25
Nevel, Bewolking  
Nevel, Bewolking  
   Wind: NNO 7.4 km/h
Wind: NNO 7.4 km/h
Temperatuur: -2°C
Voelt als: -5°C
Dauwpunt: -6°C
Vochtigheid: 74%
Barometer: 1006 hPa
Bewolking: Overcast
Zicht: 9 km
Bewolking: Bewolking 1800 ft
EHVK 232225Z AUTO 03004KT 9000 HZ OVC018 M02/M06 Q1006 WHT
EHFS - Vlissingen
Gewijzigd: 23-01-2019 23:25
Bewolking  
Bewolking  
   Wind: ONO 13 km/h
Wind: ONO 13 km/h
Temperatuur: 0°C
Voelt als: -4°C
Dauwpunt: -2°C
Vochtigheid: 87%
Barometer: 1006 hPa
Bewolking: Overcast
Zicht: meer dan 10 km
Bewolking: Grotendeels bewolkt 1500 ft,
Bewolking 1800 ft
EHFS 232225Z AUTO 07007KT 9999 BKN015/// OVC018/// 00/M02 Q1006 W///H///

Script ontwikkeld door  Saratoga-weather.org Aangepast voor de template door  Weerstation Leuven

Apparatuur in gebruik:

Weerstation
Davis VP2

Weerprogramma
WeatherLink

Weercomputer
Sponsor

Webleverancier
My provider

Davis VP2

WeatherLink

Sponsor

My provider